ANA759 RJTT-RJNK
Flight info
| Callsign | ANA759 |
|---|---|
| Flight time | 0h 38m |
| Altitude | 28000 |
| Route | BEKLA Y884 KMC |
| Aircraft | A21N/M-SDE2FGHIJ3J4LORVWXY/LB1 |
Departure
| Time | 2026-05-04 13:29 |
|---|---|
| Airport | Tokyo Haneda International Airport (RJTT) |
Arrival
| Time | 2026-05-04 14:08 |
|---|---|
| Airport | Komatsu Airport / JASDF Komatsu Air Base (RJNK) |
| Time | Latitude | Longitude | Altitude | Speed | Heading |
|---|---|---|---|---|---|
| 2026-05-04 12:48 | 35.55906 | 139.78646 | 27 ft | 0 kts | 60° |
| 2026-05-04 13:17 | 35.55905 | 139.78643 | 27 ft | 2 kts | 60° |
| 2026-05-04 13:17 | 35.55895 | 139.78624 | 15 ft | 3 kts | 60° |
| 2026-05-04 13:18 | 35.55885 | 139.78602 | 35 ft | 3 kts | 59° |
| 2026-05-04 13:18 | 35.55876 | 139.78584 | 43 ft | 2 kts | 60° |
| 2026-05-04 13:18 | 35.55870 | 139.78564 | 34 ft | 3 kts | 90° |
| 2026-05-04 13:18 | 35.55874 | 139.78545 | 31 ft | 3 kts | 134° |
| 2026-05-04 13:19 | 35.55888 | 139.78531 | 28 ft | 2 kts | 149° |
| 2026-05-04 13:19 | 35.55894 | 139.78527 | 28 ft | 0 kts | 149° |
| 2026-05-04 13:19 | 35.55895 | 139.78527 | 28 ft | 0 kts | 149° |
| 2026-05-04 13:23 | 35.55886 | 139.78533 | 28 ft | 4 kts | 149° |
| 2026-05-04 13:23 | 35.55848 | 139.78560 | 28 ft | 9 kts | 150° |
| 2026-05-04 13:24 | 35.55788 | 139.78603 | 29 ft | 11 kts | 149° |
| 2026-05-04 13:24 | 35.55711 | 139.78658 | 30 ft | 13 kts | 149° |
| 2026-05-04 13:24 | 35.55662 | 139.78703 | 31 ft | 9 kts | 121° |
| 2026-05-04 13:25 | 35.55683 | 139.78828 | 29 ft | 8 kts | 60° |
| 2026-05-04 13:25 | 35.55715 | 139.78896 | 30 ft | 11 kts | 58° |
| 2026-05-04 13:25 | 35.55743 | 139.78976 | 31 ft | 11 kts | 96° |
| 2026-05-04 13:25 | 35.55683 | 139.79043 | 31 ft | 13 kts | 152° |
| 2026-05-04 13:26 | 35.55596 | 139.79102 | 31 ft | 15 kts | 150° |
| 2026-05-04 13:26 | 35.55500 | 139.79173 | 31 ft | 17 kts | 149° |
| 2026-05-04 13:26 | 35.55384 | 139.79256 | 32 ft | 21 kts | 150° |
| 2026-05-04 13:26 | 35.55250 | 139.79351 | 32 ft | 23 kts | 150° |
| 2026-05-04 13:27 | 35.55107 | 139.79452 | 33 ft | 25 kts | 150° |
| 2026-05-04 13:27 | 35.54955 | 139.79560 | 31 ft | 26 kts | 150° |
| 2026-05-04 13:27 | 35.54795 | 139.79674 | 31 ft | 26 kts | 150° |
| 2026-05-04 13:27 | 35.54650 | 139.79778 | 30 ft | 23 kts | 150° |
| 2026-05-04 13:28 | 35.54579 | 139.79841 | 30 ft | 11 kts | 113° |
| 2026-05-04 13:28 | 35.54607 | 139.79938 | 31 ft | 14 kts | 59° |
| 2026-05-04 13:28 | 35.54661 | 139.80010 | 34 ft | 12 kts | 11° |
| 2026-05-04 13:28 | 35.54744 | 139.79967 | 34 ft | 15 kts | 330° |
| 2026-05-04 13:29 | 35.54986 | 139.79800 | 35 ft | 77 kts | 331° |
| 2026-05-04 13:29 | 35.55654 | 139.79323 | 34 ft | 140 kts | 333° |
| 2026-05-04 13:29 | 35.56529 | 139.78706 | 587 ft | 141 kts | 333° |
| 2026-05-04 13:29 | 35.57085 | 139.78285 | 1017 ft | 143 kts | 333° |
| 2026-05-04 13:30 | 35.58077 | 139.78175 | 1725 ft | 153 kts | 8° |
| 2026-05-04 13:30 | 35.59015 | 139.78887 | 2474 ft | 165 kts | 30° |
| 2026-05-04 13:30 | 35.59883 | 139.79814 | 3209 ft | 168 kts | 29° |
| 2026-05-04 13:30 | 35.60852 | 139.80768 | 3644 ft | 188 kts | 29° |
| 2026-05-04 13:31 | 35.62297 | 139.82169 | 4322 ft | 213 kts | 31° |
| 2026-05-04 13:31 | 35.63120 | 139.82967 | 4550 ft | 233 kts | 32° |
| 2026-05-04 13:31 | 35.64489 | 139.84195 | 4999 ft | 251 kts | 24° |
| 2026-05-04 13:31 | 35.66155 | 139.84916 | 5536 ft | 260 kts | 6° |
| 2026-05-04 13:32 | 35.67971 | 139.85328 | 6254 ft | 269 kts | 4° |
| 2026-05-04 13:32 | 35.69844 | 139.85515 | 6977 ft | 269 kts | 349° |
| 2026-05-04 13:32 | 35.71607 | 139.84840 | 7723 ft | 265 kts | 325° |
| 2026-05-04 13:32 | 35.73102 | 139.83554 | 8488 ft | 268 kts | 318° |
| 2026-05-04 13:33 | 35.74559 | 139.82100 | 9276 ft | 271 kts | 311° |
| 2026-05-04 13:33 | 35.75643 | 139.80223 | 10010 ft | 268 kts | 290° |
| 2026-05-04 13:33 | 35.76102 | 139.77956 | 10400 ft | 283 kts | 275° |
| 2026-05-04 13:33 | 35.76305 | 139.75462 | 10671 ft | 303 kts | 273° |
| 2026-05-04 13:34 | 35.76554 | 139.72803 | 10934 ft | 324 kts | 278° |
| 2026-05-04 13:34 | 35.77139 | 139.70038 | 11225 ft | 342 kts | 283° |
| 2026-05-04 13:34 | 35.77846 | 139.67212 | 11806 ft | 348 kts | 284° |
| 2026-05-04 13:34 | 35.78571 | 139.64356 | 12524 ft | 350 kts | 284° |
| 2026-05-04 13:35 | 35.79293 | 139.61490 | 13280 ft | 351 kts | 283° |
| 2026-05-04 13:35 | 35.80726 | 139.55743 | 14632 ft | 352 kts | 282° |
| 2026-05-04 13:35 | 35.81445 | 139.52847 | 15231 ft | 354 kts | 282° |
| 2026-05-04 13:36 | 35.82169 | 139.49939 | 15823 ft | 357 kts | 282° |
| 2026-05-04 13:36 | 35.82761 | 139.46973 | 16448 ft | 355 kts | 274° |
| 2026-05-04 13:36 | 35.82923 | 139.43945 | 17045 ft | 355 kts | 268° |
| 2026-05-04 13:36 | 35.82963 | 139.40894 | 17643 ft | 357 kts | 267° |
| 2026-05-04 13:37 | 35.82997 | 139.37825 | 18215 ft | 360 kts | 267° |
| 2026-05-04 13:37 | 35.83035 | 139.34733 | 18741 ft | 361 kts | 267° |
| 2026-05-04 13:37 | 35.83077 | 139.31674 | 19273 ft | 362 kts | 266° |
| 2026-05-04 13:37 | 35.83121 | 139.28568 | 19810 ft | 363 kts | 266° |
| 2026-05-04 13:38 | 35.83167 | 139.25456 | 20349 ft | 363 kts | 266° |
| 2026-05-04 13:38 | 35.83213 | 139.22343 | 20922 ft | 364 kts | 266° |
| 2026-05-04 13:38 | 35.83267 | 139.19213 | 21416 ft | 367 kts | 267° |
| 2026-05-04 13:38 | 35.83573 | 139.16061 | 21919 ft | 375 kts | 275° |
| 2026-05-04 13:39 | 35.84301 | 139.12937 | 22422 ft | 382 kts | 280° |
| 2026-05-04 13:39 | 35.85139 | 139.09817 | 22934 ft | 384 kts | 280° |
| 2026-05-04 13:39 | 35.85984 | 139.06687 | 23448 ft | 385 kts | 280° |
| 2026-05-04 13:39 | 35.86823 | 139.03544 | 23884 ft | 386 kts | 280° |
| 2026-05-04 13:40 | 35.87659 | 139.00383 | 24273 ft | 387 kts | 279° |
| 2026-05-04 13:40 | 35.88485 | 138.97227 | 24658 ft | 389 kts | 279° |
| 2026-05-04 13:40 | 35.89318 | 138.94042 | 25004 ft | 390 kts | 279° |
| 2026-05-04 13:40 | 35.90153 | 138.90849 | 25423 ft | 392 kts | 279° |
| 2026-05-04 13:41 | 35.90990 | 138.87662 | 25890 ft | 389 kts | 278° |
| 2026-05-04 13:41 | 35.91813 | 138.84527 | 26340 ft | 387 kts | 278° |
| 2026-05-04 13:41 | 35.92638 | 138.81364 | 26844 ft | 387 kts | 278° |
| 2026-05-04 13:42 | 35.94276 | 138.75103 | 27747 ft | 380 kts | 277° |
| 2026-05-04 13:42 | 35.95084 | 138.72003 | 27858 ft | 381 kts | 277° |
| 2026-05-04 13:42 | 35.95894 | 138.68879 | 27889 ft | 382 kts | 277° |
| 2026-05-04 13:42 | 35.96707 | 138.65754 | 27897 ft | 383 kts | 277° |
| 2026-05-04 13:43 | 35.97517 | 138.62626 | 27920 ft | 383 kts | 277° |
| 2026-05-04 13:43 | 35.98329 | 138.59488 | 27910 ft | 383 kts | 277° |
| 2026-05-04 13:43 | 35.99139 | 138.56353 | 27907 ft | 383 kts | 277° |
| 2026-05-04 13:43 | 35.99948 | 138.53215 | 27900 ft | 383 kts | 277° |
| 2026-05-04 13:44 | 36.00757 | 138.50083 | 27897 ft | 384 kts | 277° |
| 2026-05-04 13:44 | 36.01570 | 138.46931 | 27908 ft | 383 kts | 277° |
| 2026-05-04 13:44 | 36.02378 | 138.43795 | 27910 ft | 383 kts | 277° |
| 2026-05-04 13:44 | 36.03185 | 138.40658 | 27909 ft | 383 kts | 277° |
| 2026-05-04 13:45 | 36.03992 | 138.37517 | 27962 ft | 383 kts | 277° |
| 2026-05-04 13:45 | 36.04797 | 138.34380 | 27950 ft | 383 kts | 278° |
| 2026-05-04 13:45 | 36.05593 | 138.31274 | 27945 ft | 383 kts | 278° |
| 2026-05-04 13:45 | 36.06394 | 138.28136 | 27940 ft | 384 kts | 278° |
| 2026-05-04 13:46 | 36.07198 | 138.24994 | 27939 ft | 383 kts | 278° |
| 2026-05-04 13:46 | 36.08001 | 138.21850 | 27964 ft | 383 kts | 278° |
| 2026-05-04 13:46 | 36.08800 | 138.18722 | 27948 ft | 379 kts | 278° |
| 2026-05-04 13:46 | 36.09594 | 138.15602 | 27950 ft | 381 kts | 278° |
| 2026-05-04 13:47 | 36.10388 | 138.12479 | 27956 ft | 381 kts | 278° |
| 2026-05-04 13:47 | 36.11184 | 138.09351 | 28004 ft | 381 kts | 278° |
| 2026-05-04 13:47 | 36.11979 | 138.06234 | 27986 ft | 379 kts | 278° |
| 2026-05-04 13:47 | 36.12765 | 138.03130 | 27971 ft | 379 kts | 278° |
| 2026-05-04 13:48 | 36.13551 | 138.00018 | 27960 ft | 379 kts | 278° |
| 2026-05-04 13:48 | 36.14337 | 137.96904 | 27968 ft | 380 kts | 278° |
| 2026-05-04 13:48 | 36.15125 | 137.93778 | 27968 ft | 380 kts | 278° |
| 2026-05-04 13:48 | 36.15802 | 137.90644 | 27970 ft | 375 kts | 274° |
| 2026-05-04 13:49 | 36.16332 | 137.87489 | 27987 ft | 374 kts | 273° |
| 2026-05-04 13:49 | 36.16850 | 137.84334 | 27985 ft | 374 kts | 273° |
| 2026-05-04 13:49 | 36.17877 | 137.78043 | 28021 ft | 370 kts | 273° |
| 2026-05-04 13:50 | 36.18898 | 137.71797 | 28030 ft | 372 kts | 273° |
| 2026-05-04 13:50 | 36.19411 | 137.68672 | 27975 ft | 367 kts | 273° |
| 2026-05-04 13:50 | 36.19912 | 137.65618 | 27513 ft | 366 kts | 273° |
| 2026-05-04 13:51 | 36.20414 | 137.62522 | 26992 ft | 369 kts | 273° |
| 2026-05-04 13:51 | 36.20924 | 137.59396 | 26436 ft | 371 kts | 273° |
| 2026-05-04 13:51 | 36.21435 | 137.56259 | 25878 ft | 372 kts | 274° |
| 2026-05-04 13:51 | 36.21944 | 137.53119 | 25363 ft | 372 kts | 274° |
| 2026-05-04 13:52 | 36.22959 | 137.46864 | 24387 ft | 369 kts | 275° |
| 2026-05-04 13:52 | 36.23461 | 137.43762 | 23889 ft | 366 kts | 275° |
| 2026-05-04 13:52 | 36.23959 | 137.40673 | 23362 ft | 363 kts | 275° |
| 2026-05-04 13:53 | 36.24451 | 137.37607 | 22750 ft | 362 kts | 275° |
| 2026-05-04 13:53 | 36.24942 | 137.34542 | 22176 ft | 363 kts | 276° |
| 2026-05-04 13:53 | 36.25432 | 137.31486 | 21623 ft | 360 kts | 276° |
| 2026-05-04 13:54 | 36.26596 | 137.25467 | 20593 ft | 362 kts | 284° |
| 2026-05-04 13:54 | 36.27735 | 137.22665 | 20092 ft | 369 kts | 295° |
| 2026-05-04 13:54 | 36.31448 | 137.18119 | 19020 ft | 387 kts | 317° |
| 2026-05-04 13:55 | 36.33764 | 137.16413 | 18472 ft | 386 kts | 320° |
| 2026-05-04 13:55 | 36.38373 | 137.13120 | 17217 ft | 376 kts | 321° |
| 2026-05-04 13:55 | 36.40607 | 137.11499 | 16609 ft | 368 kts | 321° |
| 2026-05-04 13:56 | 36.42787 | 137.09909 | 16013 ft | 360 kts | 321° |
| 2026-05-04 13:56 | 36.44921 | 137.08340 | 15421 ft | 352 kts | 321° |
| 2026-05-04 13:56 | 36.48966 | 137.05373 | 14200 ft | 326 kts | 322° |
| 2026-05-04 13:57 | 36.50897 | 137.03953 | 13581 ft | 312 kts | 322° |
| 2026-05-04 13:57 | 36.52726 | 137.02601 | 12937 ft | 300 kts | 323° |
| 2026-05-04 13:58 | 36.57840 | 136.98821 | 11063 ft | 273 kts | 324° |
| 2026-05-04 13:58 | 36.60972 | 136.96391 | 9882 ft | 258 kts | 317° |
| 2026-05-04 13:58 | 36.62120 | 136.94726 | 9242 ft | 252 kts | 299° |
| 2026-05-04 13:59 | 36.62698 | 136.92695 | 8636 ft | 249 kts | 280° |
| 2026-05-04 13:59 | 36.62657 | 136.90557 | 8182 ft | 248 kts | 262° |
| 2026-05-04 13:59 | 36.61140 | 136.86747 | 7453 ft | 242 kts | 242° |
| 2026-05-04 14:00 | 36.60247 | 136.84991 | 7185 ft | 239 kts | 243° |
| 2026-05-04 14:00 | 36.58503 | 136.81468 | 6669 ft | 238 kts | 243° |
| 2026-05-04 14:00 | 36.57655 | 136.79732 | 6429 ft | 232 kts | 243° |
| 2026-05-04 14:01 | 36.56830 | 136.78036 | 6159 ft | 226 kts | 243° |
| 2026-05-04 14:01 | 36.56028 | 136.76379 | 5888 ft | 222 kts | 243° |
| 2026-05-04 14:01 | 36.54454 | 136.73122 | 5428 ft | 219 kts | 243° |
| 2026-05-04 14:02 | 36.53690 | 136.71496 | 5209 ft | 218 kts | 246° |
| 2026-05-04 14:02 | 36.53104 | 136.69768 | 5008 ft | 216 kts | 252° |
| 2026-05-04 14:02 | 36.52584 | 136.68022 | 4736 ft | 213 kts | 253° |
| 2026-05-04 14:02 | 36.52073 | 136.66321 | 4420 ft | 207 kts | 252° |
| 2026-05-04 14:03 | 36.51574 | 136.64673 | 4134 ft | 198 kts | 252° |
| 2026-05-04 14:03 | 36.51099 | 136.63105 | 3895 ft | 190 kts | 252° |
| 2026-05-04 14:03 | 36.50644 | 136.61605 | 3603 ft | 185 kts | 252° |
| 2026-05-04 14:03 | 36.50188 | 136.60127 | 3296 ft | 181 kts | 250° |
| 2026-05-04 14:04 | 36.48854 | 136.57561 | 2740 ft | 172 kts | 238° |
| 2026-05-04 14:04 | 36.48182 | 136.56382 | 2596 ft | 159 kts | 238° |
| 2026-05-04 14:04 | 36.47552 | 136.55248 | 2511 ft | 160 kts | 239° |
| 2026-05-04 14:05 | 36.46279 | 136.53002 | 2080 ft | 160 kts | 237° |
| 2026-05-04 14:05 | 36.45635 | 136.51863 | 1876 ft | 161 kts | 236° |
| 2026-05-04 14:05 | 36.44996 | 136.50726 | 1666 ft | 157 kts | 236° |
| 2026-05-04 14:06 | 36.44386 | 136.49637 | 1446 ft | 151 kts | 236° |
| 2026-05-04 14:06 | 36.43806 | 136.48606 | 1249 ft | 138 kts | 236° |
| 2026-05-04 14:06 | 36.43261 | 136.47636 | 1069 ft | 138 kts | 237° |
| 2026-05-04 14:06 | 36.42708 | 136.46655 | 896 ft | 138 kts | 236° |
| 2026-05-04 14:07 | 36.42157 | 136.45687 | 716 ft | 137 kts | 237° |
| 2026-05-04 14:07 | 36.41609 | 136.44696 | 554 ft | 140 kts | 237° |
| 2026-05-04 14:07 | 36.41055 | 136.43710 | 394 ft | 139 kts | 237° |
| 2026-05-04 14:07 | 36.40500 | 136.42742 | 230 ft | 140 kts | 237° |
| 2026-05-04 14:08 | 36.39940 | 136.41736 | 56 ft | 140 kts | 238° |
| 2026-05-04 14:08 | 36.39457 | 136.40862 | 38 ft | 87 kts | 236° |
| 2026-05-04 14:08 | 36.39275 | 136.40536 | 36 ft | 13 kts | 234° |
| 2026-05-04 14:08 | 36.39285 | 136.40485 | 34 ft | 6 kts | 327° |
| 2026-05-04 14:09 | 36.39390 | 136.40411 | 34 ft | 10 kts | 330° |
| 2026-05-04 14:09 | 36.39460 | 136.40400 | 34 ft | 12 kts | 36° |
| 2026-05-04 14:10 | 36.39577 | 136.40603 | 37 ft | 17 kts | 56° |
| 2026-05-04 14:10 | 36.39648 | 136.40730 | 36 ft | 19 kts | 55° |
| 2026-05-04 14:10 | 36.39724 | 136.40868 | 34 ft | 20 kts | 55° |
| 2026-05-04 14:10 | 36.39807 | 136.41015 | 32 ft | 20 kts | 55° |
| 2026-05-04 14:11 | 36.39870 | 136.41130 | 30 ft | 16 kts | 56° |
| 2026-05-04 14:11 | 36.39982 | 136.41333 | 31 ft | 11 kts | 56° |
| 2026-05-04 14:11 | 36.40018 | 136.41398 | 32 ft | 8 kts | 56° |
| 2026-05-04 14:12 | 36.40033 | 136.41420 | 32 ft | 4 kts | 31° |
| 2026-05-04 14:12 | 36.40068 | 136.41411 | 31 ft | 6 kts | 328° |
| 2026-05-04 14:12 | 36.40099 | 136.41385 | 31 ft | 2 kts | 324° |
| 2026-05-04 14:13 | 36.40110 | 136.41375 | 31 ft | 0 kts | 325° |